sensor_id;sensor_type;location;lat;lon;timestamp;temperature;humidity
29725;DHT22;16636;48.394;15.468;2022-08-25T00:01:18;20.70;99.90
29725;DHT22;16636;48.394;15.468;2022-08-25T00:03:45;20.80;99.90
29725;DHT22;16636;48.394;15.468;2022-08-25T00:06:13;20.80;99.90
29725;DHT22;16636;48.394;15.468;2022-08-25T00:08:40;20.70;99.90
29725;DHT22;16636;48.394;15.468;2022-08-25T00:11:12;20.80;99.90
29725;DHT22;16636;48.394;15.468;2022-08-25T00:13:41;20.70;99.90
29725;DHT22;16636;48.394;15.468;2022-08-25T00:16:13;20.70;99.90
29725;DHT22;16636;48.394;15.468;2022-08-25T00:18:41;20.80;99.90
29725;DHT22;16636;48.394;15.468;2022-08-25T00:21:07;20.80;99.90
29725;DHT22;16636;48.394;15.468;2022-08-25T00:23:33;20.80;99.90
29725;DHT22;16636;48.394;15.468;2022-08-25T00:26:00;20.80;99.90
29725;DHT22;16636;48.394;15.468;2022-08-25T00:28:26;20.70;99.90
29725;DHT22;16636;48.394;15.468;2022-08-25T00:30:55;20.70;99.90
29725;DHT22;16636;48.394;15.468;2022-08-25T00:33:22;20.70;99.90
29725;DHT22;16636;48.394;15.468;2022-08-25T00:35:48;20.70;99.90
29725;DHT22;16636;48.394;15.468;2022-08-25T00:38:14;20.70;99.90
29725;DHT22;16636;48.394;15.468;2022-08-25T00:40:41;20.60;99.90
29725;DHT22;16636;48.394;15.468;2022-08-25T00:43:07;20.60;99.90
29725;DHT22;16636;48.394;15.468;2022-08-25T00:45:34;20.60;99.90
29725;DHT22;16636;48.394;15.468;2022-08-25T00:48:00;20.70;99.90
29725;DHT22;16636;48.394;15.468;2022-08-25T00:50:29;20.70;99.90
29725;DHT22;16636;48.394;15.468;2022-08-25T00:52:59;20.70;99.90
29725;DHT22;16636;48.394;15.468;2022-08-25T00:55:30;20.70;99.90
29725;DHT22;16636;48.394;15.468;2022-08-25T00:58:12;20.60;99.90
29725;DHT22;16636;48.394;15.468;2022-08-25T01:00:46;20.60;99.90
29725;DHT22;16636;48.394;15.468;2022-08-25T01:03:13;20.60;99.90
29725;DHT22;16636;48.394;15.468;2022-08-25T01:05:39;20.60;99.90
29725;DHT22;16636;48.394;15.468;2022-08-25T01:08:07;20.60;99.90
29725;DHT22;16636;48.394;15.468;2022-08-25T01:10:35;20.60;99.90
29725;DHT22;16636;48.394;15.468;2022-08-25T01:13:13;20.60;99.90
29725;DHT22;16636;48.394;15.468;2022-08-25T01:15:44;20.60;99.90
29725;DHT22;16636;48.394;15.468;2022-08-25T01:18:10;20.60;99.90
29725;DHT22;16636;48.394;15.468;2022-08-25T01:20:36;20.70;99.90
29725;DHT22;16636;48.394;15.468;2022-08-25T01:23:03;20.70;99.90
29725;DHT22;16636;48.394;15.468;2022-08-25T01:28:10;20.70;99.90
29725;DHT22;16636;48.394;15.468;2022-08-25T01:30:37;20.70;99.90
29725;DHT22;16636;48.394;15.468;2022-08-25T01:33:07;20.70;99.90
29725;DHT22;16636;48.394;15.468;2022-08-25T01:35:34;20.70;99.90
29725;DHT22;16636;48.394;15.468;2022-08-25T01:38:02;20.70;99.90
29725;DHT22;16636;48.394;15.468;2022-08-25T01:40:29;20.70;99.90
29725;DHT22;16636;48.394;15.468;2022-08-25T01:43:29;20.70;99.90
29725;DHT22;16636;48.394;15.468;2022-08-25T01:45:56;20.60;99.90
29725;DHT22;16636;48.394;15.468;2022-08-25T01:48:22;20.60;99.90
29725;DHT22;16636;48.394;15.468;2022-08-25T01:50:48;20.60;99.90
29725;DHT22;16636;48.394;15.468;2022-08-25T01:53:32;20.60;99.90
29725;DHT22;16636;48.394;15.468;2022-08-25T01:55:58;20.60;99.90
29725;DHT22;16636;48.394;15.468;2022-08-25T01:58:32;20.60;99.90
29725;DHT22;16636;48.394;15.468;2022-08-25T02:01:02;20.60;99.90
29725;DHT22;16636;48.394;15.468;2022-08-25T02:03:29;20.60;99.90
29725;DHT22;16636;48.394;15.468;2022-08-25T02:05:56;20.70;99.90
29725;DHT22;16636;48.394;15.468;2022-08-25T02:08:23;20.70;99.90
29725;DHT22;16636;48.394;15.468;2022-08-25T02:10:50;20.60;99.90
29725;DHT22;16636;48.394;15.468;2022-08-25T02:13:17;20.60;99.90
29725;DHT22;16636;48.394;15.468;2022-08-25T02:15:49;20.60;99.90
29725;DHT22;16636;48.394;15.468;2022-08-25T02:18:17;20.60;99.90
29725;DHT22;16636;48.394;15.468;2022-08-25T02:20:44;20.50;99.90
29725;DHT22;16636;48.394;15.468;2022-08-25T02:23:10;20.60;99.90
29725;DHT22;16636;48.394;15.468;2022-08-25T02:25:37;20.50;99.90
29725;DHT22;16636;48.394;15.468;2022-08-25T02:28:05;20.60;99.90
29725;DHT22;16636;48.394;15.468;2022-08-25T02:30:31;20.50;99.90
29725;DHT22;16636;48.394;15.468;2022-08-25T02:32:57;20.50;99.90
29725;DHT22;16636;48.394;15.468;2022-08-25T02:35:23;20.50;99.90
29725;DHT22;16636;48.394;15.468;2022-08-25T02:37:51;20.50;99.90
29725;DHT22;16636;48.394;15.468;2022-08-25T02:40:17;20.50;99.90
29725;DHT22;16636;48.394;15.468;2022-08-25T02:42:49;20.40;99.90
29725;DHT22;16636;48.394;15.468;2022-08-25T02:45:16;20.40;99.90
29725;DHT22;16636;48.394;15.468;2022-08-25T02:47:43;20.50;99.90
29725;DHT22;16636;48.394;15.468;2022-08-25T02:50:10;20.50;99.90
29725;DHT22;16636;48.394;15.468;2022-08-25T02:52:36;20.60;99.90
29725;DHT22;16636;48.394;15.468;2022-08-25T02:55:05;20.60;99.90
29725;DHT22;16636;48.394;15.468;2022-08-25T02:57:31;20.50;99.90
29725;DHT22;16636;48.394;15.468;2022-08-25T02:59:58;20.50;99.90
29725;DHT22;16636;48.394;15.468;2022-08-25T03:02:25;20.40;99.90
29725;DHT22;16636;48.394;15.468;2022-08-25T03:04:51;20.50;99.90
29725;DHT22;16636;48.394;15.468;2022-08-25T03:07:18;20.50;99.90
29725;DHT22;16636;48.394;15.468;2022-08-25T03:09:44;20.50;99.90
29725;DHT22;16636;48.394;15.468;2022-08-25T03:12:11;20.50;99.90
29725;DHT22;16636;48.394;15.468;2022-08-25T03:14:38;20.50;99.90
29725;DHT22;16636;48.394;15.468;2022-08-25T03:17:05;20.40;99.90
29725;DHT22;16636;48.394;15.468;2022-08-25T03:19:32;20.40;99.90
29725;DHT22;16636;48.394;15.468;2022-08-25T03:21:58;20.50;99.90
29725;DHT22;16636;48.394;15.468;2022-08-25T03:24:25;20.50;99.90
29725;DHT22;16636;48.394;15.468;2022-08-25T03:26:51;20.50;99.90
29725;DHT22;16636;48.394;15.468;2022-08-25T03:29:22;20.50;99.90
29725;DHT22;16636;48.394;15.468;2022-08-25T03:31:49;20.40;99.90
29725;DHT22;16636;48.394;15.468;2022-08-25T03:34:17;20.40;99.90
29725;DHT22;16636;48.394;15.468;2022-08-25T03:36:45;20.40;99.90
29725;DHT22;16636;48.394;15.468;2022-08-25T03:39:13;20.40;99.90
29725;DHT22;16636;48.394;15.468;2022-08-25T03:41:45;20.40;99.90
29725;DHT22;16636;48.394;15.468;2022-08-25T03:44:13;20.40;99.90
29725;DHT22;16636;48.394;15.468;2022-08-25T03:46:42;20.40;99.90
29725;DHT22;16636;48.394;15.468;2022-08-25T03:49:11;20.40;99.90
29725;DHT22;16636;48.394;15.468;2022-08-25T03:51:41;20.30;99.90
29725;DHT22;16636;48.394;15.468;2022-08-25T03:54:08;20.30;99.90
29725;DHT22;16636;48.394;15.468;2022-08-25T03:56:35;20.40;99.90
29725;DHT22;16636;48.394;15.468;2022-08-25T03:59:02;20.30;99.90
29725;DHT22;16636;48.394;15.468;2022-08-25T04:01:29;20.30;99.90
29725;DHT22;16636;48.394;15.468;2022-08-25T04:03:55;20.30;99.90
29725;DHT22;16636;48.394;15.468;2022-08-25T04:06:21;20.30;99.90
29725;DHT22;16636;48.394;15.468;2022-08-25T04:08:48;20.30;99.90
29725;DHT22;16636;48.394;15.468;2022-08-25T04:11:21;20.30;99.90
29725;DHT22;16636;48.394;15.468;2022-08-25T04:13:48;20.20;99.90
29725;DHT22;16636;48.394;15.468;2022-08-25T04:16:17;20.20;99.90
29725;DHT22;16636;48.394;15.468;2022-08-25T04:18:44;20.20;99.90
29725;DHT22;16636;48.394;15.468;2022-08-25T04:21:11;20.20;99.90
29725;DHT22;16636;48.394;15.468;2022-08-25T04:23:39;20.20;99.90
29725;DHT22;16636;48.394;15.468;2022-08-25T04:26:15;20.20;99.90
29725;DHT22;16636;48.394;15.468;2022-08-25T04:28:42;20.20;99.90
29725;DHT22;16636;48.394;15.468;2022-08-25T04:31:08;20.20;99.90
29725;DHT22;16636;48.394;15.468;2022-08-25T04:33:35;20.20;99.90
29725;DHT22;16636;48.394;15.468;2022-08-25T04:36:02;20.20;99.90
29725;DHT22;16636;48.394;15.468;2022-08-25T04:38:28;20.20;99.90
29725;DHT22;16636;48.394;15.468;2022-08-25T04:41:00;20.20;99.90
29725;DHT22;16636;48.394;15.468;2022-08-25T04:43:32;20.20;99.90
29725;DHT22;16636;48.394;15.468;2022-08-25T04:45:59;20.20;99.90
29725;DHT22;16636;48.394;15.468;2022-08-25T04:48:25;20.20;99.90
29725;DHT22;16636;48.394;15.468;2022-08-25T04:50:51;20.20;99.90
29725;DHT22;16636;48.394;15.468;2022-08-25T04:53:17;20.20;99.90
29725;DHT22;16636;48.394;15.468;2022-08-25T04:55:45;20.10;99.90
29725;DHT22;16636;48.394;15.468;2022-08-25T04:58:13;20.10;99.90
29725;DHT22;16636;48.394;15.468;2022-08-25T05:00:40;20.10;99.90
29725;DHT22;16636;48.394;15.468;2022-08-25T05:03:07;20.00;99.90
29725;DHT22;16636;48.394;15.468;2022-08-25T05:05:35;19.90;99.90
29725;DHT22;16636;48.394;15.468;2022-08-25T05:08:03;19.90;99.90
29725;DHT22;16636;48.394;15.468;2022-08-25T05:10:29;19.90;99.90
29725;DHT22;16636;48.394;15.468;2022-08-25T05:12:55;19.90;99.90
29725;DHT22;16636;48.394;15.468;2022-08-25T05:15:21;19.80;99.90
29725;DHT22;16636;48.394;15.468;2022-08-25T05:18:05;19.80;99.90
29725;DHT22;16636;48.394;15.468;2022-08-25T05:20:35;19.80;99.90
29725;DHT22;16636;48.394;15.468;2022-08-25T05:23:02;19.90;99.90
29725;DHT22;16636;48.394;15.468;2022-08-25T05:25:28;19.90;99.90
29725;DHT22;16636;48.394;15.468;2022-08-25T05:27:55;19.90;99.90
29725;DHT22;16636;48.394;15.468;2022-08-25T05:30:21;20.00;99.90
29725;DHT22;16636;48.394;15.468;2022-08-25T05:32:47;19.90;99.90
29725;DHT22;16636;48.394;15.468;2022-08-25T05:35:13;19.90;99.90
29725;DHT22;16636;48.394;15.468;2022-08-25T05:37:41;19.90;99.90
29725;DHT22;16636;48.394;15.468;2022-08-25T05:40:07;19.90;99.90
29725;DHT22;16636;48.394;15.468;2022-08-25T05:42:34;19.90;99.90
29725;DHT22;16636;48.394;15.468;2022-08-25T05:45:00;19.90;99.90
29725;DHT22;16636;48.394;15.468;2022-08-25T05:47:27;19.90;99.90
29725;DHT22;16636;48.394;15.468;2022-08-25T05:49:53;19.90;99.90
29725;DHT22;16636;48.394;15.468;2022-08-25T05:52:19;19.90;99.90
29725;DHT22;16636;48.394;15.468;2022-08-25T05:54:45;19.90;99.90
29725;DHT22;16636;48.394;15.468;2022-08-25T05:57:11;19.90;99.90
29725;DHT22;16636;48.394;15.468;2022-08-25T06:04:51;19.90;99.90
29725;DHT22;16636;48.394;15.468;2022-08-25T06:10:52;19.70;99.90
29725;DHT22;16636;48.394;15.468;2022-08-25T06:13:19;19.60;99.90
29725;DHT22;16636;48.394;15.468;2022-08-25T06:15:46;19.60;99.90
29725;DHT22;16636;48.394;15.468;2022-08-25T06:18:20;19.60;99.90
29725;DHT22;16636;48.394;15.468;2022-08-25T06:20:54;19.60;99.90
29725;DHT22;16636;48.394;15.468;2022-08-25T06:23:20;19.60;99.90
29725;DHT22;16636;48.394;15.468;2022-08-25T06:25:51;19.50;99.90
29725;DHT22;16636;48.394;15.468;2022-08-25T06:28:18;19.40;99.90
29725;DHT22;16636;48.394;15.468;2022-08-25T06:30:45;19.50;99.90
29725;DHT22;16636;48.394;15.468;2022-08-25T06:33:12;19.50;99.90
29725;DHT22;16636;48.394;15.468;2022-08-25T06:35:43;19.50;99.90
29725;DHT22;16636;48.394;15.468;2022-08-25T06:38:10;19.50;99.90
29725;DHT22;16636;48.394;15.468;2022-08-25T06:40:38;19.40;99.90
29725;DHT22;16636;48.394;15.468;2022-08-25T06:43:06;19.50;99.90
29725;DHT22;16636;48.394;15.468;2022-08-25T06:45:34;19.60;99.90
29725;DHT22;16636;48.394;15.468;2022-08-25T06:48:01;19.60;99.90
29725;DHT22;16636;48.394;15.468;2022-08-25T06:50:28;19.60;99.90
29725;DHT22;16636;48.394;15.468;2022-08-25T06:52:54;19.50;99.90
29725;DHT22;16636;48.394;15.468;2022-08-25T06:55:20;19.50;99.90
29725;DHT22;16636;48.394;15.468;2022-08-25T06:57:46;19.60;99.90
29725;DHT22;16636;48.394;15.468;2022-08-25T07:00:13;19.60;99.90
29725;DHT22;16636;48.394;15.468;2022-08-25T07:02:40;19.60;99.90
29725;DHT22;16636;48.394;15.468;2022-08-25T07:05:07;19.60;99.90
29725;DHT22;16636;48.394;15.468;2022-08-25T07:07:34;19.60;99.90
29725;DHT22;16636;48.394;15.468;2022-08-25T07:10:00;19.60;99.90
29725;DHT22;16636;48.394;15.468;2022-08-25T07:12:27;19.60;99.90
29725;DHT22;16636;48.394;15.468;2022-08-25T07:14:54;19.70;99.90
29725;DHT22;16636;48.394;15.468;2022-08-25T07:17:21;19.60;99.90
29725;DHT22;16636;48.394;15.468;2022-08-25T07:19:49;19.60;99.90
29725;DHT22;16636;48.394;15.468;2022-08-25T07:22:40;19.60;99.90
29725;DHT22;16636;48.394;15.468;2022-08-25T07:25:06;19.70;99.90
29725;DHT22;16636;48.394;15.468;2022-08-25T07:27:32;19.70;99.90
29725;DHT22;16636;48.394;15.468;2022-08-25T07:29:58;19.70;99.90
29725;DHT22;16636;48.394;15.468;2022-08-25T07:32:24;19.60;99.90
29725;DHT22;16636;48.394;15.468;2022-08-25T07:34:51;19.60;99.90
29725;DHT22;16636;48.394;15.468;2022-08-25T07:37:38;19.60;99.90
29725;DHT22;16636;48.394;15.468;2022-08-25T07:40:05;19.60;99.90
29725;DHT22;16636;48.394;15.468;2022-08-25T07:42:37;19.60;99.90
29725;DHT22;16636;48.394;15.468;2022-08-25T07:45:05;19.60;99.90
29725;DHT22;16636;48.394;15.468;2022-08-25T07:47:31;19.60;99.90
29725;DHT22;16636;48.394;15.468;2022-08-25T07:49:57;19.70;99.90
29725;DHT22;16636;48.394;15.468;2022-08-25T07:52:24;19.80;99.90
29725;DHT22;16636;48.394;15.468;2022-08-25T07:54:50;19.80;99.90
29725;DHT22;16636;48.394;15.468;2022-08-25T07:57:18;19.80;99.90
29725;DHT22;16636;48.394;15.468;2022-08-25T07:59:47;19.80;99.90
29725;DHT22;16636;48.394;15.468;2022-08-25T08:02:13;19.80;99.90
29725;DHT22;16636;48.394;15.468;2022-08-25T08:04:39;19.80;99.90
29725;DHT22;16636;48.394;15.468;2022-08-25T08:07:06;19.80;99.90
29725;DHT22;16636;48.394;15.468;2022-08-25T08:09:32;19.80;99.90
29725;DHT22;16636;48.394;15.468;2022-08-25T08:11:58;19.80;99.90
29725;DHT22;16636;48.394;15.468;2022-08-25T08:14:24;19.80;99.90
29725;DHT22;16636;48.394;15.468;2022-08-25T08:16:50;19.80;99.90
29725;DHT22;16636;48.394;15.468;2022-08-25T08:19:16;19.80;99.90
29725;DHT22;16636;48.394;15.468;2022-08-25T08:21:42;19.90;99.90
29725;DHT22;16636;48.394;15.468;2022-08-25T08:24:08;19.90;99.90
29725;DHT22;16636;48.394;15.468;2022-08-25T08:26:34;19.90;99.90
29725;DHT22;16636;48.394;15.468;2022-08-25T08:29:00;20.00;99.90
29725;DHT22;16636;48.394;15.468;2022-08-25T08:31:26;20.00;99.90
29725;DHT22;16636;48.394;15.468;2022-08-25T08:33:54;20.00;99.90
29725;DHT22;16636;48.394;15.468;2022-08-25T08:36:22;20.00;99.90
29725;DHT22;16636;48.394;15.468;2022-08-25T08:38:48;20.00;99.90
29725;DHT22;16636;48.394;15.468;2022-08-25T08:52:19;20.20;99.90
29725;DHT22;16636;48.394;15.468;2022-08-25T08:54:51;20.20;99.90
29725;DHT22;16636;48.394;15.468;2022-08-25T08:57:24;20.10;99.90
29725;DHT22;16636;48.394;15.468;2022-08-25T08:59:55;20.10;99.90
29725;DHT22;16636;48.394;15.468;2022-08-25T09:02:34;20.10;99.90
29725;DHT22;16636;48.394;15.468;2022-08-25T09:05:03;20.20;99.90
29725;DHT22;16636;48.394;15.468;2022-08-25T09:07:53;20.20;99.90
29725;DHT22;16636;48.394;15.468;2022-08-25T09:10:19;20.20;99.90
29725;DHT22;16636;48.394;15.468;2022-08-25T09:15:34;20.30;99.90
29725;DHT22;16636;48.394;15.468;2022-08-25T09:23:57;20.40;99.90
29725;DHT22;16636;48.394;15.468;2022-08-25T09:26:34;20.50;99.90
29725;DHT22;16636;48.394;15.468;2022-08-25T09:29:16;20.50;99.90
29725;DHT22;16636;48.394;15.468;2022-08-25T09:31:46;20.50;99.90
29725;DHT22;16636;48.394;15.468;2022-08-25T09:34:23;20.40;99.90
29725;DHT22;16636;48.394;15.468;2022-08-25T09:36:52;20.50;99.90
29725;DHT22;16636;48.394;15.468;2022-08-25T09:39:19;20.50;99.90
29725;DHT22;16636;48.394;15.468;2022-08-25T09:44:26;20.50;99.90
29725;DHT22;16636;48.394;15.468;2022-08-25T09:46:59;20.40;99.90
29725;DHT22;16636;48.394;15.468;2022-08-25T09:49:40;20.50;99.90
29725;DHT22;16636;48.394;15.468;2022-08-25T09:52:25;20.60;99.90
29725;DHT22;16636;48.394;15.468;2022-08-25T09:55:29;20.60;99.90
29725;DHT22;16636;48.394;15.468;2022-08-25T09:57:56;20.60;99.90
29725;DHT22;16636;48.394;15.468;2022-08-25T10:00:32;20.60;99.90
29725;DHT22;16636;48.394;15.468;2022-08-25T10:03:12;20.60;99.90
29725;DHT22;16636;48.394;15.468;2022-08-25T10:08:21;20.60;99.90
29725;DHT22;16636;48.394;15.468;2022-08-25T10:10:53;20.70;99.90
29725;DHT22;16636;48.394;15.468;2022-08-25T10:13:20;20.60;99.90
29725;DHT22;16636;48.394;15.468;2022-08-25T10:16:24;20.60;99.90
29725;DHT22;16636;48.394;15.468;2022-08-25T10:19:29;20.70;99.90
29725;DHT22;16636;48.394;15.468;2022-08-25T10:22:07;20.70;99.90
29725;DHT22;16636;48.394;15.468;2022-08-25T10:24:35;20.70;99.90
29725;DHT22;16636;48.394;15.468;2022-08-25T10:41:38;21.10;99.90
29725;DHT22;16636;48.394;15.468;2022-08-25T10:44:29;21.10;99.90
29725;DHT22;16636;48.394;15.468;2022-08-25T10:49:55;21.20;99.90
29725;DHT22;16636;48.394;15.468;2022-08-25T10:52:56;21.20;99.90
29725;DHT22;16636;48.394;15.468;2022-08-25T10:58:27;21.20;99.90
29725;DHT22;16636;48.394;15.468;2022-08-25T11:02:04;21.20;99.90
29725;DHT22;16636;48.394;15.468;2022-08-25T11:04:08;21.20;99.90
29725;DHT22;16636;48.394;15.468;2022-08-25T11:07:04;21.30;99.90
29725;DHT22;16636;48.394;15.468;2022-08-25T11:09:35;21.30;99.90
29725;DHT22;16636;48.394;15.468;2022-08-25T11:12:11;21.30;99.90
29725;DHT22;16636;48.394;15.468;2022-08-25T11:14:45;21.30;99.90
29725;DHT22;16636;48.394;15.468;2022-08-25T11:19:55;21.40;99.90
29725;DHT22;16636;48.394;15.468;2022-08-25T11:22:27;21.50;99.90
29725;DHT22;16636;48.394;15.468;2022-08-25T11:25:17;21.50;99.90
29725;DHT22;16636;48.394;15.468;2022-08-25T11:28:08;21.60;99.90
29725;DHT22;16636;48.394;15.468;2022-08-25T11:30:36;21.70;99.90
29725;DHT22;16636;48.394;15.468;2022-08-25T11:33:15;21.70;99.90
29725;DHT22;16636;48.394;15.468;2022-08-25T11:35:43;21.70;99.90
29725;DHT22;16636;48.394;15.468;2022-08-25T11:44:51;21.90;99.90
29725;DHT22;16636;48.394;15.468;2022-08-25T12:00:45;23.00;99.90
29725;DHT22;16636;48.394;15.468;2022-08-25T12:24:52;23.50;99.90
29725;DHT22;16636;48.394;15.468;2022-08-25T12:33:16;23.80;99.90
29725;DHT22;16636;48.394;15.468;2022-08-25T12:41:03;24.00;99.90
29725;DHT22;16636;48.394;15.468;2022-08-25T12:43:34;24.10;99.90
29725;DHT22;16636;48.394;15.468;2022-08-25T13:03:09;24.80;99.90
29725;DHT22;16636;48.394;15.468;2022-08-25T13:06:03;24.90;99.90
29725;DHT22;16636;48.394;15.468;2022-08-25T13:08:54;24.80;99.90
29725;DHT22;16636;48.394;15.468;2022-08-25T13:14:45;24.90;99.90
29725;DHT22;16636;48.394;15.468;2022-08-25T13:17:33;25.10;99.90
29725;DHT22;16636;48.394;15.468;2022-08-25T13:20:24;25.30;99.90
29725;DHT22;16636;48.394;15.468;2022-08-25T13:22:52;25.60;99.90
29725;DHT22;16636;48.394;15.468;2022-08-25T13:25:23;25.70;99.90
29725;DHT22;16636;48.394;15.468;2022-08-25T13:27:56;25.40;99.90
29725;DHT22;16636;48.394;15.468;2022-08-25T13:30:28;25.60;99.90
29725;DHT22;16636;48.394;15.468;2022-08-25T13:32:54;25.90;99.90
29725;DHT22;16636;48.394;15.468;2022-08-25T13:37:49;26.30;99.90
29725;DHT22;16636;48.394;15.468;2022-08-25T13:40:22;26.40;99.90
29725;DHT22;16636;48.394;15.468;2022-08-25T13:42:51;26.40;99.90
29725;DHT22;16636;48.394;15.468;2022-08-25T13:45:25;26.50;99.90
29725;DHT22;16636;48.394;15.468;2022-08-25T13:47:52;26.60;99.90
29725;DHT22;16636;48.394;15.468;2022-08-25T13:52:54;26.30;99.90
29725;DHT22;16636;48.394;15.468;2022-08-25T13:55:24;26.20;99.90
29725;DHT22;16636;48.394;15.468;2022-08-25T13:57:50;26.20;99.90
29725;DHT22;16636;48.394;15.468;2022-08-25T14:00:40;26.40;99.90
29725;DHT22;16636;48.394;15.468;2022-08-25T14:03:07;26.50;99.90
29725;DHT22;16636;48.394;15.468;2022-08-25T14:06:25;26.70;99.90
29725;DHT22;16636;48.394;15.468;2022-08-25T14:11:29;27.00;99.90
29725;DHT22;16636;48.394;15.468;2022-08-25T14:14:04;27.20;99.90
29725;DHT22;16636;48.394;15.468;2022-08-25T14:16:38;27.40;99.90
29725;DHT22;16636;48.394;15.468;2022-08-25T14:19:13;27.50;99.90
29725;DHT22;16636;48.394;15.468;2022-08-25T14:21:40;27.50;99.90
29725;DHT22;16636;48.394;15.468;2022-08-25T14:24:07;27.60;99.90
29725;DHT22;16636;48.394;15.468;2022-08-25T14:26:32;27.80;99.90
29725;DHT22;16636;48.394;15.468;2022-08-25T14:28:58;27.90;99.90
29725;DHT22;16636;48.394;15.468;2022-08-25T14:34:03;27.90;99.90
29725;DHT22;16636;48.394;15.468;2022-08-25T14:36:30;27.90;99.90
29725;DHT22;16636;48.394;15.468;2022-08-25T14:38:58;27.90;99.90
29725;DHT22;16636;48.394;15.468;2022-08-25T14:41:24;27.90;99.90
29725;DHT22;16636;48.394;15.468;2022-08-25T14:43:51;28.10;99.90
29725;DHT22;16636;48.394;15.468;2022-08-25T14:46:23;28.20;99.90
29725;DHT22;16636;48.394;15.468;2022-08-25T14:48:53;28.30;99.90
29725;DHT22;16636;48.394;15.468;2022-08-25T14:51:22;28.40;99.90
29725;DHT22;16636;48.394;15.468;2022-08-25T14:53:51;28.30;99.90
29725;DHT22;16636;48.394;15.468;2022-08-25T14:56:18;28.20;99.90
29725;DHT22;16636;48.394;15.468;2022-08-25T14:58:44;28.30;99.90
29725;DHT22;16636;48.394;15.468;2022-08-25T15:01:14;28.30;99.90
29725;DHT22;16636;48.394;15.468;2022-08-25T15:03:43;28.30;99.90
29725;DHT22;16636;48.394;15.468;2022-08-25T15:06:12;28.30;99.90
29725;DHT22;16636;48.394;15.468;2022-08-25T15:08:39;28.20;99.90
29725;DHT22;16636;48.394;15.468;2022-08-25T15:11:23;28.30;99.90
29725;DHT22;16636;48.394;15.468;2022-08-25T15:13:49;28.40;99.90
29725;DHT22;16636;48.394;15.468;2022-08-25T15:16:26;28.40;99.90
29725;DHT22;16636;48.394;15.468;2022-08-25T15:18:52;28.40;99.90
29725;DHT22;16636;48.394;15.468;2022-08-25T15:21:18;28.40;99.90
29725;DHT22;16636;48.394;15.468;2022-08-25T15:23:44;28.40;99.90
29725;DHT22;16636;48.394;15.468;2022-08-25T15:26:13;28.40;99.90
29725;DHT22;16636;48.394;15.468;2022-08-25T15:28:42;28.40;99.90
29725;DHT22;16636;48.394;15.468;2022-08-25T15:31:10;28.40;99.90
29725;DHT22;16636;48.394;15.468;2022-08-25T15:33:39;28.30;99.90
29725;DHT22;16636;48.394;15.468;2022-08-25T15:36:10;28.20;99.90
29725;DHT22;16636;48.394;15.468;2022-08-25T15:38:38;28.30;99.90
29725;DHT22;16636;48.394;15.468;2022-08-25T15:41:06;28.30;99.90
29725;DHT22;16636;48.394;15.468;2022-08-25T15:43:33;28.20;99.90
29725;DHT22;16636;48.394;15.468;2022-08-25T15:45:59;28.20;99.90
29725;DHT22;16636;48.394;15.468;2022-08-25T15:48:25;28.20;99.90
29725;DHT22;16636;48.394;15.468;2022-08-25T15:50:55;28.20;99.90
29725;DHT22;16636;48.394;15.468;2022-08-25T15:53:23;28.10;99.90
29725;DHT22;16636;48.394;15.468;2022-08-25T15:55:51;28.00;99.90
29725;DHT22;16636;48.394;15.468;2022-08-25T15:58:18;27.90;99.90
29725;DHT22;16636;48.394;15.468;2022-08-25T16:00:45;27.80;99.90
29725;DHT22;16636;48.394;15.468;2022-08-25T16:03:12;27.60;99.90
29725;DHT22;16636;48.394;15.468;2022-08-25T16:05:40;27.50;99.90
29725;DHT22;16636;48.394;15.468;2022-08-25T16:08:07;27.30;99.90
29725;DHT22;16636;48.394;15.468;2022-08-25T16:10:34;27.20;99.90
29725;DHT22;16636;48.394;15.468;2022-08-25T16:13:00;27.20;99.90
29725;DHT22;16636;48.394;15.468;2022-08-25T16:15:29;27.10;99.90
29725;DHT22;16636;48.394;15.468;2022-08-25T16:17:57;27.00;99.90
29725;DHT22;16636;48.394;15.468;2022-08-25T16:20:23;27.00;99.90
29725;DHT22;16636;48.394;15.468;2022-08-25T16:22:50;26.90;99.90
29725;DHT22;16636;48.394;15.468;2022-08-25T16:25:16;26.80;99.90
29725;DHT22;16636;48.394;15.468;2022-08-25T16:27:41;26.70;99.90
29725;DHT22;16636;48.394;15.468;2022-08-25T16:30:10;26.70;99.90
29725;DHT22;16636;48.394;15.468;2022-08-25T16:32:38;26.60;99.90
29725;DHT22;16636;48.394;15.468;2022-08-25T16:35:05;26.60;99.90
29725;DHT22;16636;48.394;15.468;2022-08-25T16:37:32;26.50;99.90
29725;DHT22;16636;48.394;15.468;2022-08-25T16:39:58;26.40;99.90
29725;DHT22;16636;48.394;15.468;2022-08-25T16:42:24;26.30;99.90
29725;DHT22;16636;48.394;15.468;2022-08-25T16:44:51;26.20;99.90
29725;DHT22;16636;48.394;15.468;2022-08-25T16:47:17;26.10;99.90
29725;DHT22;16636;48.394;15.468;2022-08-25T16:49:43;26.10;99.90
29725;DHT22;16636;48.394;15.468;2022-08-25T16:52:09;26.00;99.90
29725;DHT22;16636;48.394;15.468;2022-08-25T16:54:53;25.90;99.90
29725;DHT22;16636;48.394;15.468;2022-08-25T16:57:39;25.90;99.90
29725;DHT22;16636;48.394;15.468;2022-08-25T17:00:08;25.80;99.90
29725;DHT22;16636;48.394;15.468;2022-08-25T17:02:36;25.80;99.90
29725;DHT22;16636;48.394;15.468;2022-08-25T17:05:03;25.70;99.90
29725;DHT22;16636;48.394;15.468;2022-08-25T17:07:31;25.70;99.90
29725;DHT22;16636;48.394;15.468;2022-08-25T17:09:57;25.60;99.90
29725;DHT22;16636;48.394;15.468;2022-08-25T17:12:26;25.60;99.90
29725;DHT22;16636;48.394;15.468;2022-08-25T17:14:52;25.50;99.90
29725;DHT22;16636;48.394;15.468;2022-08-25T17:17:18;25.40;99.90
29725;DHT22;16636;48.394;15.468;2022-08-25T17:19:45;25.30;99.90
29725;DHT22;16636;48.394;15.468;2022-08-25T17:22:11;25.30;99.90
29725;DHT22;16636;48.394;15.468;2022-08-25T17:24:43;25.30;99.90
29725;DHT22;16636;48.394;15.468;2022-08-25T17:27:11;25.20;99.90
29725;DHT22;16636;48.394;15.468;2022-08-25T17:29:37;25.20;99.90
29725;DHT22;16636;48.394;15.468;2022-08-25T17:32:05;25.10;99.90
29725;DHT22;16636;48.394;15.468;2022-08-25T17:34:31;25.00;99.90
29725;DHT22;16636;48.394;15.468;2022-08-25T17:37:00;24.90;99.90
29725;DHT22;16636;48.394;15.468;2022-08-25T17:39:26;24.90;99.90
29725;DHT22;16636;48.394;15.468;2022-08-25T17:41:52;24.90;99.90
29725;DHT22;16636;48.394;15.468;2022-08-25T17:44:19;24.80;99.90
29725;DHT22;16636;48.394;15.468;2022-08-25T17:46:45;24.70;99.90
29725;DHT22;16636;48.394;15.468;2022-08-25T17:49:11;24.70;99.90
29725;DHT22;16636;48.394;15.468;2022-08-25T17:51:37;24.70;99.90
29725;DHT22;16636;48.394;15.468;2022-08-25T17:54:03;24.70;99.90